createdAt,value
2022-08-01T00:01:14.261Z,99625.81
2022-08-01T00:03:41.124Z,99626.50
2022-08-01T00:06:07.969Z,99626.50
2022-08-01T00:08:34.836Z,99630.00
2022-08-01T00:11:02.948Z,99623.28
2022-08-01T00:13:29.920Z,99624.81
2022-08-01T00:15:56.799Z,99625.53
2022-08-01T00:18:23.823Z,99621.19
2022-08-01T00:20:50.680Z,99624.88
2022-08-01T00:23:17.502Z,99631.97
2022-08-01T00:25:44.363Z,99627.16
2022-08-01T00:28:11.251Z,99630.63
2022-08-01T00:30:38.056Z,99639.09
2022-08-01T00:33:04.888Z,99640.06
2022-08-01T00:35:31.700Z,99629.69
2022-08-01T00:37:58.601Z,99630.44
2022-08-01T00:40:25.468Z,99628.75
2022-08-01T00:42:52.385Z,99633.66
2022-08-01T00:45:19.241Z,99625.47
2022-08-01T00:47:46.071Z,99626.41
2022-08-01T00:50:12.913Z,99627.09
2022-08-01T00:52:40.692Z,99625.19
2022-08-01T00:55:08.407Z,99624.09
2022-08-01T00:58:03.717Z,99623.25
2022-08-01T01:00:27.668Z,99627.94
2022-08-01T01:02:54.558Z,99628.19
2022-08-01T01:05:21.422Z,99626.72
2022-08-01T01:07:49.778Z,99622.25
2022-08-01T01:10:21.544Z,99628.63
2022-08-01T01:12:52.616Z,99623.56
2022-08-01T01:15:22.505Z,99623.34
2022-08-01T01:17:52.638Z,99626.09
2022-08-01T01:20:21.724Z,99633.94
2022-08-01T01:22:54.655Z,99632.47
2022-08-01T01:25:26.860Z,99633.06
2022-08-01T01:28:02.483Z,99638.00
2022-08-01T01:30:31.043Z,99637.16
2022-08-01T01:33:00.790Z,99643.75
2022-08-01T01:35:29.284Z,99640.84
2022-08-01T01:37:59.062Z,99643.13
2022-08-01T01:40:26.621Z,99649.72
2022-08-01T01:42:55.876Z,99653.94
2022-08-01T01:45:24.695Z,99658.13
2022-08-01T01:47:52.405Z,99656.25
2022-08-01T01:50:20.868Z,99654.69
2022-08-01T01:52:49.677Z,99648.72
2022-08-01T01:55:17.011Z,99655.47
2022-08-01T01:57:45.082Z,99662.28
2022-08-01T02:00:13.061Z,99656.50
2022-08-01T02:02:41.615Z,99654.38
2022-08-01T02:05:10.709Z,99656.06
2022-08-01T02:07:37.879Z,99657.50
2022-08-01T02:10:05.744Z,99657.28
2022-08-01T02:12:35.747Z,99666.56
2022-08-01T02:15:04.485Z,99665.25
2022-08-01T02:17:31.778Z,99660.47
2022-08-01T02:19:59.073Z,99662.94
2022-08-01T02:22:34.739Z,99666.06
2022-08-01T02:25:01.562Z,99658.16
2022-08-01T02:27:35.173Z,99660.09
2022-08-01T02:30:09.325Z,99664.06
2022-08-01T02:32:40.789Z,99669.09
2022-08-01T02:35:27.997Z,99672.19
2022-08-01T02:37:56.068Z,99661.47
2022-08-01T02:40:23.328Z,99666.81
2022-08-01T02:42:51.224Z,99667.22
2022-08-01T02:45:23.299Z,99661.53
2022-08-01T02:47:50.804Z,99665.50
2022-08-01T02:50:18.785Z,99668.91
2022-08-01T02:52:48.144Z,99666.53
2022-08-01T02:55:15.680Z,99666.66
2022-08-01T02:57:52.290Z,99676.16
2022-08-01T03:00:19.678Z,99665.50
2022-08-01T03:02:47.438Z,99668.84
2022-08-01T03:05:14.541Z,99665.16
2022-08-01T03:07:42.290Z,99679.00
2022-08-01T03:10:10.046Z,99674.44
2022-08-01T03:12:37.764Z,99676.72
2022-08-01T03:15:05.710Z,99669.03
2022-08-01T03:17:33.196Z,99673.47
2022-08-01T03:20:03.000Z,99669.41
2022-08-01T03:22:30.672Z,99675.06
2022-08-01T03:24:58.345Z,99678.19
2022-08-01T03:27:25.548Z,99674.13
2022-08-01T03:29:52.965Z,99672.56
2022-08-01T03:32:21.020Z,99671.59
2022-08-01T03:34:47.979Z,99680.00
2022-08-01T03:37:24.097Z,99675.69
2022-08-01T03:40:10.776Z,99678.22
2022-08-01T03:42:46.642Z,99682.44
2022-08-01T03:45:20.000Z,99680.06
2022-08-01T03:47:47.645Z,99679.19
2022-08-01T03:50:15.021Z,99675.97
2022-08-01T03:52:44.459Z,99681.03
2022-08-01T03:55:12.495Z,99679.06
2022-08-01T03:57:39.723Z,99677.16
2022-08-01T04:00:07.029Z,99672.72
2022-08-01T04:02:39.701Z,99674.63
2022-08-01T04:05:06.729Z,99672.09
2022-08-01T04:07:34.015Z,99672.47
2022-08-01T04:10:00.878Z,99680.53
2022-08-01T04:12:27.873Z,99678.72
2022-08-01T04:14:54.703Z,99680.16
2022-08-01T04:17:21.548Z,99681.00
2022-08-01T04:19:48.395Z,99686.56
2022-08-01T04:22:15.874Z,99685.09
2022-08-01T04:24:45.330Z,99686.31
2022-08-01T04:27:18.245Z,99692.91
2022-08-01T04:30:06.630Z,99689.47
2022-08-01T04:32:35.367Z,99696.66
2022-08-01T04:35:05.931Z,99706.69
2022-08-01T04:37:50.955Z,99694.03
2022-08-01T04:40:18.374Z,99691.50
2022-08-01T04:42:45.404Z,99694.38
2022-08-01T04:45:12.629Z,99691.50
2022-08-01T04:47:40.405Z,99694.63
2022-08-01T04:50:07.996Z,99699.09
2022-08-01T04:52:38.157Z,99705.22
2022-08-01T04:55:05.989Z,99699.19
2022-08-01T04:57:35.904Z,99704.00
2022-08-01T05:00:03.396Z,99699.66
2022-08-01T05:02:30.243Z,99706.84
2022-08-01T05:04:57.086Z,99705.28
2022-08-01T05:07:23.978Z,99708.38
2022-08-01T05:09:50.861Z,99707.31
2022-08-01T05:12:17.761Z,99706.38
2022-08-01T05:14:44.791Z,99718.63
2022-08-01T05:17:11.635Z,99704.69
2022-08-01T05:19:39.090Z,99714.44
2022-08-01T05:22:07.208Z,99709.56
2022-08-01T05:24:34.986Z,99714.38
2022-08-01T05:27:03.625Z,99719.31
2022-08-01T05:29:30.779Z,99722.91
2022-08-01T05:31:57.673Z,99726.03
2022-08-01T05:34:24.506Z,99726.38
2022-08-01T05:36:56.701Z,99726.56
2022-08-01T05:39:24.783Z,99722.81
2022-08-01T05:41:51.622Z,99727.69
2022-08-01T05:44:18.462Z,99721.19
2022-08-01T05:46:45.285Z,99729.91
2022-08-01T05:49:12.177Z,99730.38
2022-08-01T05:51:39.135Z,99733.31
2022-08-01T05:54:06.205Z,99735.91
2022-08-01T05:56:33.062Z,99734.81
2022-08-01T05:58:59.920Z,99736.38
2022-08-01T06:01:26.765Z,99741.00
2022-08-01T06:03:53.599Z,99739.75
2022-08-01T06:06:20.986Z,99748.97
2022-08-01T06:08:52.420Z,99741.00
2022-08-01T06:11:19.253Z,99749.06
2022-08-01T06:13:48.623Z,99749.66
2022-08-01T06:16:16.243Z,99749.16
2022-08-01T06:21:09.753Z,99752.66
2022-08-01T06:23:36.600Z,99756.63
2022-08-01T06:26:03.507Z,99756.38
2022-08-01T06:28:30.610Z,99755.50
2022-08-01T06:30:57.482Z,99751.31
2022-08-01T06:33:24.348Z,99757.09
2022-08-01T06:35:51.182Z,99759.16
2022-08-01T06:38:18.258Z,99760.34
2022-08-01T06:40:45.080Z,99763.03
2022-08-01T06:43:11.989Z,99772.66
2022-08-01T06:45:39.473Z,99769.75
2022-08-01T06:48:06.331Z,99766.00
2022-08-01T06:50:33.490Z,99772.03
2022-08-01T06:53:00.325Z,99768.38
2022-08-01T06:55:27.216Z,99768.16
2022-08-01T06:57:54.114Z,99781.91
2022-08-01T07:00:22.613Z,99776.22
2022-08-01T07:02:53.276Z,99783.50
2022-08-01T07:05:20.867Z,99782.38
2022-08-01T07:07:47.709Z,99784.44
2022-08-01T07:10:14.585Z,99791.72
2022-08-01T07:12:41.913Z,99781.00
2022-08-01T07:15:12.151Z,99777.75
2022-08-01T07:17:39.973Z,99786.75
2022-08-01T07:20:11.360Z,99786.28
2022-08-01T07:22:38.604Z,99785.63
2022-08-01T07:25:05.909Z,99780.88
2022-08-01T07:27:32.955Z,99784.06
2022-08-01T07:30:03.137Z,99783.28
2022-08-01T07:32:29.961Z,99781.34
2022-08-01T07:34:56.883Z,99780.81
2022-08-01T07:37:44.329Z,99780.81
2022-08-01T07:40:11.671Z,99785.22
2022-08-01T07:42:38.675Z,99791.28
2022-08-01T07:45:05.713Z,99784.59
2022-08-01T07:47:32.573Z,99785.00
2022-08-01T07:50:00.500Z,99775.91
2022-08-01T07:52:27.361Z,99776.84
2022-08-01T07:54:54.221Z,99783.63
2022-08-01T07:57:21.129Z,99781.41
2022-08-01T07:59:47.959Z,99780.09
2022-08-01T08:02:14.982Z,99780.91
2022-08-01T08:04:44.663Z,99781.69
2022-08-01T08:07:15.335Z,99781.91
2022-08-01T08:09:42.192Z,99780.53
2022-08-01T08:12:09.632Z,99782.75
2022-08-01T08:14:36.989Z,99780.81
2022-08-01T08:17:04.343Z,99781.47
2022-08-01T08:19:37.483Z,99777.25
2022-08-01T08:22:06.494Z,99778.66
2022-08-01T08:24:33.555Z,99776.41
2022-08-01T08:27:01.379Z,99776.94
2022-08-01T08:29:28.943Z,99778.72
2022-08-01T08:31:57.163Z,99781.72
2022-08-01T08:34:24.890Z,99773.94
2022-08-01T08:36:52.111Z,99774.78
2022-08-01T08:39:19.850Z,99781.19
2022-08-01T08:41:49.116Z,99778.69
2022-08-01T08:44:16.942Z,99782.78
2022-08-01T08:46:47.647Z,99784.59
2022-08-01T08:49:22.404Z,99778.19
2022-08-01T08:51:50.188Z,99782.84
2022-08-01T08:54:17.717Z,99778.81
2022-08-01T08:56:45.369Z,99774.91
2022-08-01T08:59:13.323Z,99771.13
2022-08-01T09:01:40.226Z,99788.16
2022-08-01T09:04:07.079Z,99775.72
2022-08-01T09:06:34.089Z,99781.72
2022-08-01T09:09:00.979Z,99778.09
2022-08-01T09:11:27.842Z,99774.13
2022-08-01T09:14:03.644Z,99785.63
2022-08-01T09:16:31.589Z,99789.53
2022-08-01T09:19:39.515Z,99781.28
2022-08-01T09:22:07.092Z,99792.22
2022-08-01T09:24:34.913Z,99792.06
2022-08-01T09:27:03.290Z,99791.50
2022-08-01T09:29:37.085Z,99787.91
2022-08-01T09:32:07.059Z,99790.38
2022-08-01T09:34:34.213Z,99788.88
2022-08-01T09:37:02.716Z,99794.69
2022-08-01T09:39:30.748Z,99790.31
2022-08-01T09:41:59.299Z,99790.13
2022-08-01T09:44:55.204Z,99783.06
2022-08-01T09:47:23.756Z,99783.19
2022-08-01T09:49:57.398Z,99783.69
2022-08-01T09:52:27.853Z,99782.09
2022-08-01T09:54:57.313Z,99779.31
2022-08-01T09:57:24.534Z,99776.84
2022-08-01T10:00:01.049Z,99778.88
2022-08-01T10:02:28.601Z,99773.41
2022-08-01T10:05:03.406Z,99778.44
2022-08-01T10:07:43.532Z,99774.25
2022-08-01T10:10:12.921Z,99769.22
2022-08-01T10:12:45.259Z,99766.41
2022-08-01T10:15:15.408Z,99767.22
2022-08-01T10:17:51.301Z,99765.59
2022-08-01T10:20:30.875Z,99763.00
2022-08-01T10:23:00.302Z,99762.25
2022-08-01T10:25:42.782Z,99764.38
2022-08-01T10:28:21.538Z,99760.19
2022-08-01T10:30:52.175Z,99767.25
2022-08-01T10:33:51.333Z,99757.38
2022-08-01T10:36:09.669Z,99755.44
2022-08-01T10:38:37.261Z,99755.03
2022-08-01T10:41:05.987Z,99744.63
2022-08-01T10:43:35.365Z,99746.78
2022-08-01T10:46:04.014Z,99747.25
2022-08-01T10:48:33.920Z,99748.06
2022-08-01T10:51:04.879Z,99754.31
2022-08-01T10:53:50.840Z,99733.50
2022-08-01T10:56:26.781Z,99738.16
2022-08-01T10:59:15.409Z,99739.84
2022-08-01T11:01:45.193Z,99745.28
2022-08-01T11:04:17.918Z,99739.47
2022-08-01T11:07:02.244Z,99731.91
2022-08-01T11:09:39.010Z,99731.00
2022-08-01T11:12:13.496Z,99738.03
2022-08-01T11:14:59.814Z,99730.81
2022-08-01T11:17:41.833Z,99725.38
2022-08-01T11:20:13.868Z,99729.31
2022-08-01T11:22:59.586Z,99729.31
2022-08-01T11:26:05.070Z,99727.56
2022-08-01T11:28:28.200Z,99722.03
2022-08-01T11:30:55.694Z,99724.50
2022-08-01T11:33:49.434Z,99723.03
2022-08-01T11:36:16.362Z,99714.56
2022-08-01T11:38:47.860Z,99714.19
2022-08-01T11:41:14.686Z,99719.34
2022-08-01T11:44:02.155Z,99719.34
2022-08-01T11:46:48.240Z,99720.63
2022-08-01T11:49:29.127Z,99717.69
2022-08-01T11:51:57.995Z,99714.81
2022-08-01T11:54:34.923Z,99718.91
2022-08-01T11:57:08.179Z,99715.91
2022-08-01T12:00:02.918Z,99717.78
2022-08-01T12:02:59.810Z,99721.53
2022-08-01T12:05:27.785Z,99716.13
2022-08-01T12:07:58.368Z,99718.47
2022-08-01T12:10:26.516Z,99711.19
2022-08-01T12:12:54.953Z,99716.50
2022-08-01T12:15:22.933Z,99714.59
2022-08-01T12:17:58.143Z,99711.69
2022-08-01T12:20:32.958Z,99719.78
2022-08-01T12:23:01.173Z,99712.91
2022-08-01T12:25:28.614Z,99703.63
2022-08-01T12:27:56.820Z,99702.44
2022-08-01T12:30:24.380Z,99703.41
2022-08-01T12:32:51.988Z,99708.63
2022-08-01T12:35:20.047Z,99695.59
2022-08-01T12:37:48.349Z,99696.66
2022-08-01T12:40:28.445Z,99707.72
2022-08-01T12:42:59.212Z,99701.97
2022-08-01T12:45:27.483Z,99699.34
2022-08-01T12:47:55.190Z,99698.91
2022-08-01T12:50:23.243Z,99692.78
2022-08-01T12:52:50.873Z,99696.88
2022-08-01T12:55:21.967Z,99687.28
2022-08-01T12:57:50.096Z,99694.97
2022-08-01T13:00:27.175Z,99680.88
2022-08-01T13:03:02.893Z,99682.00
2022-08-01T13:05:41.375Z,99681.59
2022-08-01T13:08:12.393Z,99691.53
2022-08-01T13:10:39.392Z,99688.47
2022-08-01T13:13:06.231Z,99687.22
2022-08-01T13:15:34.063Z,99682.72
2022-08-01T13:18:02.089Z,99673.81
2022-08-01T13:20:30.616Z,99682.38
2022-08-01T13:23:11.066Z,99677.59
2022-08-01T13:25:55.042Z,99673.94
2022-08-01T13:28:25.844Z,99676.59
2022-08-01T13:30:56.842Z,99681.41
2022-08-01T13:33:24.423Z,99686.53
2022-08-01T13:35:53.993Z,99687.88
2022-08-01T13:38:21.198Z,99688.44
2022-08-01T13:40:48.009Z,99683.41
2022-08-01T13:43:14.865Z,99679.59
2022-08-01T13:45:41.840Z,99675.59
2022-08-01T13:48:19.050Z,99680.34
2022-08-01T13:50:57.442Z,99677.06
2022-08-01T13:53:34.014Z,99675.09
2022-08-01T13:56:00.860Z,99677.56
2022-08-01T13:58:27.752Z,99680.03
2022-08-01T14:00:54.596Z,99672.66
2022-08-01T14:03:21.450Z,99679.72
2022-08-01T14:06:01.026Z,99671.03
2022-08-01T14:08:27.914Z,99671.63
2022-08-01T14:10:54.893Z,99677.09
2022-08-01T14:13:23.697Z,99680.31
2022-08-01T14:15:50.980Z,99680.97
2022-08-01T14:18:17.928Z,99675.88
2022-08-01T14:20:44.887Z,99682.28
2022-08-01T14:23:12.168Z,99679.63
2022-08-01T14:26:03.205Z,99678.72
2022-08-01T14:28:26.881Z,99678.72
2022-08-01T14:30:53.731Z,99668.75
2022-08-01T14:33:20.569Z,99675.91
2022-08-01T14:36:05.218Z,99664.72
2022-08-01T14:38:34.338Z,99677.63
2022-08-01T14:41:01.930Z,99675.88
2022-08-01T14:43:33.171Z,99676.50
2022-08-01T14:46:01.161Z,99677.78
2022-08-01T14:48:28.046Z,99673.72
2022-08-01T14:50:57.385Z,99674.25
2022-08-01T14:53:24.234Z,99683.41
2022-08-01T14:55:51.109Z,99680.72
2022-08-01T14:58:17.978Z,99693.03
2022-08-01T15:00:44.919Z,99685.31
2022-08-01T15:03:11.838Z,99681.81
2022-08-01T15:05:38.923Z,99677.09
2022-08-01T15:08:06.955Z,99678.13
2022-08-01T15:10:33.853Z,99680.44
2022-08-01T15:13:00.687Z,99676.09
2022-08-01T15:15:28.062Z,99681.81
2022-08-01T15:17:54.972Z,99677.81
2022-08-01T15:20:21.801Z,99684.19
2022-08-01T15:22:48.648Z,99684.34
2022-08-01T15:25:15.547Z,99680.03
2022-08-01T15:27:42.365Z,99682.13
2022-08-01T15:30:09.293Z,99691.97
2022-08-01T15:32:36.145Z,99688.84
2022-08-01T15:35:03.201Z,99690.50
2022-08-01T15:37:30.010Z,99689.75
2022-08-01T15:39:56.927Z,99694.13
2022-08-01T15:42:25.678Z,99681.56
2022-08-01T15:44:54.313Z,99686.56
2022-08-01T15:47:21.224Z,99675.50
2022-08-01T15:49:52.144Z,99681.28
2022-08-01T15:52:21.851Z,99678.34
2022-08-01T15:54:49.968Z,99678.34
2022-08-01T15:57:16.921Z,99674.50
2022-08-01T15:59:43.769Z,99680.91
2022-08-01T16:02:11.175Z,99687.22
2022-08-01T16:04:38.763Z,99671.34
2022-08-01T16:07:06.193Z,99677.69
2022-08-01T16:09:33.066Z,99679.50
2022-08-01T16:12:00.004Z,99680.56
2022-08-01T16:14:26.847Z,99674.91
2022-08-01T16:16:56.335Z,99678.69
2022-08-01T16:19:23.169Z,99679.81
2022-08-01T16:21:49.992Z,99671.13
2022-08-01T16:24:16.836Z,99672.94
2022-08-01T16:26:43.709Z,99670.84
2022-08-01T16:29:10.528Z,99668.31
2022-08-01T16:31:46.097Z,99678.25
2022-08-01T16:34:24.227Z,99678.06
2022-08-01T16:36:51.186Z,99670.88
2022-08-01T16:39:22.804Z,99677.94
2022-08-01T16:42:05.420Z,99667.09
2022-08-01T16:44:34.113Z,99670.72
2022-08-01T16:47:02.601Z,99665.53
2022-08-01T16:49:29.552Z,99665.97
2022-08-01T16:51:56.440Z,99664.75
2022-08-01T16:54:25.846Z,99660.44
2022-08-01T16:56:53.640Z,99665.03
2022-08-01T16:59:20.532Z,99659.25
2022-08-01T17:01:56.935Z,99659.31
2022-08-01T17:04:30.663Z,99660.56
2022-08-01T17:06:57.517Z,99657.28
2022-08-01T17:09:24.369Z,99660.28
2022-08-01T17:11:51.228Z,99657.53
2022-08-01T17:14:18.058Z,99655.91
2022-08-01T17:16:44.905Z,99657.91
2022-08-01T17:19:11.757Z,99659.53
2022-08-01T17:21:41.330Z,99663.50
2022-08-01T17:24:08.824Z,99662.38
2022-08-01T17:26:35.684Z,99665.41
2022-08-01T17:29:02.499Z,99660.69
2022-08-01T17:31:29.325Z,99667.47
2022-08-01T17:33:56.170Z,99661.56
2022-08-01T17:36:23.027Z,99666.03
2022-08-01T17:38:49.884Z,99665.25
2022-08-01T17:41:16.775Z,99654.66
2022-08-01T17:43:43.702Z,99657.47
2022-08-01T17:46:10.632Z,99663.97
2022-08-01T17:48:37.495Z,99658.44
2022-08-01T17:51:04.361Z,99664.59
2022-08-01T17:53:31.229Z,99665.44
2022-08-01T17:55:58.202Z,99667.66
2022-08-01T17:58:33.025Z,99672.44
2022-08-01T18:01:13.069Z,99672.78
2022-08-01T18:03:40.863Z,99670.00
2022-08-01T18:06:09.307Z,99674.53
2022-08-01T18:08:36.296Z,99673.97
2022-08-01T18:11:03.200Z,99680.09
2022-08-01T18:13:30.115Z,99678.41
2022-08-01T18:15:57.330Z,99673.69
2022-08-01T18:18:33.568Z,99678.69
2022-08-01T18:21:01.653Z,99677.03
2022-08-01T18:23:28.535Z,99680.38
2022-08-01T18:25:55.615Z,99685.69
2022-08-01T18:28:31.261Z,99686.81
2022-08-01T18:31:00.928Z,99696.25
2022-08-01T18:33:27.805Z,99694.31
2022-08-01T18:35:54.825Z,99701.56
2022-08-01T18:38:24.657Z,99699.06
2022-08-01T18:40:52.633Z,99696.53
2022-08-01T18:43:19.490Z,99696.50
2022-08-01T18:45:46.407Z,99703.19
2022-08-01T18:48:13.251Z,99708.34
2022-08-01T18:50:40.123Z,99703.63
2022-08-01T18:53:07.059Z,99706.94
2022-08-01T18:55:33.925Z,99720.06
2022-08-01T18:58:00.780Z,99713.59
2022-08-01T19:00:27.679Z,99709.97
2022-08-01T19:02:54.515Z,99727.47
2022-08-01T19:05:21.381Z,99725.19
2022-08-01T19:08:06.170Z,99739.09
2022-08-01T19:10:38.922Z,99736.00
2022-08-01T19:13:06.142Z,99737.97
2022-08-01T19:15:33.280Z,99748.56
2022-08-01T19:18:00.414Z,99754.41
2022-08-01T19:20:27.399Z,99758.81
2022-08-01T19:22:54.603Z,99763.72
2022-08-01T19:25:21.477Z,99769.25
2022-08-01T19:27:49.834Z,99775.69
2022-08-01T19:30:17.772Z,99776.53
2022-08-01T19:32:45.726Z,99773.34
2022-08-01T19:35:14.073Z,99776.72
2022-08-01T19:37:41.625Z,99784.09
2022-08-01T19:40:08.658Z,99782.16
2022-08-01T19:42:39.377Z,99788.47
2022-08-01T19:45:06.609Z,99803.41
2022-08-01T19:47:56.052Z,99794.16
2022-08-01T19:50:20.922Z,99798.31
2022-08-01T19:52:51.426Z,99800.31
2022-08-01T19:55:18.539Z,99810.78
2022-08-01T19:58:10.657Z,99813.56
2022-08-01T20:00:39.271Z,99818.38
2022-08-01T20:03:07.136Z,99818.06
2022-08-01T20:05:34.396Z,99817.72
2022-08-01T20:08:01.507Z,99822.47
2022-08-01T20:10:30.132Z,99820.88
2022-08-01T20:12:57.148Z,99825.78
2022-08-01T20:15:24.566Z,99821.84
2022-08-01T20:17:51.384Z,99824.41
2022-08-01T20:20:18.321Z,99825.06
2022-08-01T20:22:46.226Z,99822.91
2022-08-01T20:25:13.112Z,99825.31
2022-08-01T20:27:41.966Z,99819.78
2022-08-01T20:30:09.173Z,99834.94
2022-08-01T20:32:37.509Z,99841.75
2022-08-01T20:35:04.516Z,99830.81
2022-08-01T20:38:06.672Z,99835.28
2022-08-01T20:40:21.945Z,99826.59
2022-08-01T20:42:52.222Z,99838.81
2022-08-01T20:45:19.204Z,99835.09
2022-08-01T20:47:46.137Z,99832.25
2022-08-01T20:50:27.183Z,99831.16
2022-08-01T20:52:59.880Z,99849.09
2022-08-01T20:55:33.111Z,99852.50
2022-08-01T20:58:03.263Z,99850.81
2022-08-01T21:00:30.885Z,99852.84
2022-08-01T21:03:18.730Z,99847.78
2022-08-01T21:05:56.053Z,99851.56
2022-08-01T21:08:35.258Z,99858.91
2022-08-01T21:11:03.179Z,99855.06
2022-08-01T21:13:36.001Z,99853.03
2022-08-01T21:16:23.836Z,99855.59
2022-08-01T21:19:18.090Z,99858.97
2022-08-01T21:21:43.919Z,99855.09
2022-08-01T21:24:22.924Z,99855.00
2022-08-01T21:26:50.115Z,99858.50
2022-08-01T21:29:18.175Z,99857.31
2022-08-01T21:31:46.015Z,99857.13
2022-08-01T21:34:14.594Z,99862.44
2022-08-01T21:36:43.882Z,99862.34
2022-08-01T21:39:10.896Z,99865.84
2022-08-01T21:41:56.605Z,99861.53
2022-08-01T21:44:28.721Z,99872.72
2022-08-01T21:46:59.902Z,99879.50
2022-08-01T21:49:27.603Z,99870.22
2022-08-01T21:51:59.735Z,99883.50
2022-08-01T21:54:45.851Z,99893.38
2022-08-01T21:57:38.337Z,99892.75
2022-08-01T22:00:09.676Z,99895.16
2022-08-01T22:02:44.577Z,99890.13
2022-08-01T22:05:12.384Z,99889.50
2022-08-01T22:07:44.295Z,99897.09
2022-08-01T22:10:13.038Z,99895.41
2022-08-01T22:12:39.951Z,99890.59
2022-08-01T22:15:07.278Z,99886.97
2022-08-01T22:17:34.715Z,99891.88
2022-08-01T22:20:01.830Z,99904.06
2022-08-01T22:22:52.030Z,99904.88
2022-08-01T22:25:17.394Z,99908.75
2022-08-01T22:28:06.674Z,99918.97
2022-08-01T22:30:31.971Z,99912.78
2022-08-01T22:33:07.903Z,99903.16
2022-08-01T22:35:43.332Z,99911.44
2022-08-01T22:38:10.295Z,99909.97
2022-08-01T22:40:39.292Z,99903.69
2022-08-01T22:43:13.380Z,99911.44
2022-08-01T22:45:56.089Z,99912.16
2022-08-01T22:48:22.909Z,99917.31
2022-08-01T22:50:50.530Z,99924.63
2022-08-01T22:53:24.042Z,99925.09
2022-08-01T22:55:59.210Z,99915.09
2022-08-01T22:58:28.307Z,99916.66
2022-08-01T23:00:59.661Z,99913.75
2022-08-01T23:03:33.639Z,99907.09
2022-08-01T23:06:00.456Z,99910.75
2022-08-01T23:08:27.530Z,99907.78
2022-08-01T23:10:55.051Z,99897.72
2022-08-01T23:13:22.653Z,99900.84
2022-08-01T23:15:52.299Z,99890.50
2022-08-01T23:18:21.060Z,99896.72
2022-08-01T23:20:48.439Z,99899.94
2022-08-01T23:23:15.609Z,99901.47
2022-08-01T23:25:43.547Z,99903.88
2022-08-01T23:28:11.370Z,99906.94
2022-08-01T23:30:38.700Z,99910.06
2022-08-01T23:33:05.864Z,99911.78
2022-08-01T23:35:35.470Z,99920.47
2022-08-01T23:38:06.212Z,99908.97
2022-08-01T23:40:33.797Z,99913.25
2022-08-01T23:43:01.748Z,99909.63
2022-08-01T23:45:28.580Z,99904.09
2022-08-01T23:48:15.824Z,99899.22
2022-08-01T23:50:42.755Z,99901.97
2022-08-01T23:53:09.617Z,99902.22
2022-08-01T23:55:37.940Z,99894.00
2022-08-01T23:58:05.330Z,99901.88
